Back to Top

Language: 

My Weather Underground Personal Weather Station Historical Data with Graphs...

Delerius Weather Station Historical Data
Daily Summary for December 17, 2017 Units:  Metric    English   Both
« Previous Day
Next Day »
Daily Weekly Monthly Yearly Custom
  High: Low: Average:
Temperature: 9.4 °C -3.1 °C 3.6 °C
Dew Point: 8.2 °C -3.9 °C 2.4 °C
Humidity: 96 % 83 % 92 %
Wind Speed: 24.1 km/h 0 km/h 6.8 km/h
Wind Gust: 41.8 km/h - -
Wind:- - WSW
Pressure: 1022.9 hPa 1014.1 hPa -
Precipitation: 1.27 mm    
Historical Graphs
 
 
Tabular Data for December 17, 2017
Time Temperature Dew Point Pressure Wind Wind Speed Wind Gust Humidity Rainfall Rate (Hourly) solar Conditions
00:01 -2.3 °C -3.1 °C 1022.6 hPa Calm   1.6 km/h 94 % 0 mm 0 W/m2
00:06 -2.3 °C -3.1 °C 1022.6 hPa Calm     94 % 0 mm 0 W/m2
00:07 -2.3 °C -3.1 °C 1022.6 hPa Calm     94 % 0 mm 0 W/m2
00:12 -2.3 °C -3.1 °C 1022.6 hPa Calm     94 % 0 mm 0 W/m2
00:17 -2.4 °C -3.2 °C 1022.6 hPa Calm     94 % 0 mm 0 W/m2
00:18 -2.4 °C -3.2 °C 1022.6 hPa Calm     94 % 0 mm 0 W/m2
00:23 -2.6 °C -3.4 °C 1022.6 hPa Calm     94 % 0 mm 0 W/m2
00:28 -2.7 °C -3.6 °C 1022.2 hPa Calm     94 % 0 mm 0 W/m2
00:30 -2.7 °C -3.6 °C 1022.6 hPa Calm     94 % 0 mm 0 W/m2
00:35 -2.8 °C -3.6 °C 1022.6 hPa Calm     94 % 0 mm 0 W/m2
00:38 -2.8 °C -3.6 °C 1022.6 hPa Calm     94 % 0 mm 0 W/m2
00:43 -2.9 °C -3.7 °C 1022.6 hPa Calm     94 % 0 mm 0 W/m2
00:47 -2.9 °C -3.7 °C 1022.6 hPa Calm     94 % 0 mm 0 W/m2
00:53 -2.9 °C -3.7 °C 1022.6 hPa Calm     94 % 0 mm 0 W/m2
00:58 -3 °C -3.8 °C 1022.6 hPa Calm     94 % 0 mm 0 W/m2
01:01 -3.1 °C -3.9 °C 1022.6 hPa WNW 1.6 km/h 3.2 km/h 94 % 0 mm 0 W/m2
01:02 -3.1 °C -3.9 °C 1022.6 hPa WNW 1.6 km/h 3.2 km/h 94 % 0 mm 0 W/m2
01:07 -3.1 °C -3.9 °C 1022.6 hPa Calm     94 % 0 mm 0 W/m2
01:09 -3 °C -3.8 °C 1022.6 hPa Calm     94 % 0 mm 0 W/m2
01:11 -3 °C -3.7 °C 1022.6 hPa Calm     95 % 0 mm 0 W/m2
01:14 -2.9 °C -3.6 °C 1022.6 hPa Calm     95 % 0 mm 0 W/m2
01:19 -2.9 °C -3.6 °C 1022.6 hPa Calm     95 % 0 mm 0 W/m2
01:20 -2.9 °C -3.6 °C 1022.6 hPa Calm     95 % 0 mm 0 W/m2
01:25 -2.9 °C -3.6 °C 1022.6 hPa Calm     95 % 0 mm 0 W/m2
01:26 -2.9 °C -3.6 °C 1022.6 hPa Calm     95 % 0 mm 0 W/m2
01:31 -2.9 °C -3.6 °C 1022.6 hPa Calm     95 % 0 mm 0 W/m2
01:34 -2.8 °C -3.5 °C 1022.6 hPa Calm     95 % 0 mm 0 W/m2
01:39 -2.7 °C -3.4 °C 1022.6 hPa Calm     95 % 0 mm 0 W/m2
01:41 -2.7 °C -3.4 °C 1022.6 hPa Calm     95 % 0 mm 0 W/m2
01:46 -2.7 °C -3.4 °C 1022.6 hPa Calm     95 % 0 mm 0 W/m2
01:47 -2.7 °C -3.4 °C 1022.6 hPa Calm     95 % 0 mm 0 W/m2
01:48 -2.7 °C -3.4 °C 1022.6 hPa Calm     95 % 0 mm 0 W/m2
01:53 -2.7 °C -3.4 °C 1022.6 hPa Calm     95 % 0 mm 0 W/m2
01:58 -2.6 °C -3.3 °C 1022.6 hPa Calm     95 % 0 mm 0 W/m2
02:00 -2.6 °C -3.3 °C 1022.6 hPa Calm     95 % 0 mm 0 W/m2
02:06 -2.6 °C -3.3 °C 1022.6 hPa Calm   3.2 km/h 95 % 0 mm 0 W/m2
02:08 -2.6 °C -3.3 °C 1022.6 hPa WNW 1.6 km/h 6.4 km/h 95 % 0 mm 0 W/m2
02:13 -2.6 °C -3.3 °C 1022.9 hPa Calm     95 % 0 mm 0 W/m2
02:16 -2.6 °C -3.3 °C 1022.9 hPa Calm     95 % 0 mm 0 W/m2
02:19 -2.6 °C -3.3 °C 1022.9 hPa Calm     95 % 0 mm 0 W/m2
02:21 -2.7 °C -3.4 °C 1022.9 hPa Calm     95 % 0 mm 0 W/m2
02:23 -2.7 °C -3.4 °C 1022.9 hPa Calm     95 % 0 mm 0 W/m2
02:28 -2.8 °C -3.5 °C 1022.9 hPa Calm     95 % 0 mm 0 W/m2
02:29 -2.8 °C -3.5 °C 1022.9 hPa Calm     95 % 0 mm 0 W/m2
02:34 -2.8 °C -3.5 °C 1022.9 hPa Calm     95 % 0 mm 0 W/m2
02:35 -2.8 °C -3.5 °C 1022.9 hPa Calm     95 % 0 mm 0 W/m2
02:36 -2.8 °C -3.5 °C 1022.9 hPa Calm     95 % 0 mm 0 W/m2
02:40 -2.9 °C -3.7 °C 1022.9 hPa Calm     94 % 0 mm 0 W/m2
02:41 -2.9 °C -3.6 °C 1022.9 hPa Calm   3.2 km/h 95 % 0 mm 0 W/m2
02:45 -2.7 °C -3.4 °C 1022.6 hPa WNW 1.6 km/h 3.2 km/h 95 % 0 mm 0 W/m2
02:46 -2.7 °C -3.4 °C 1022.6 hPa Calm   1.6 km/h 95 % 0 mm 0 W/m2
02:49 -2.6 °C -3.3 °C 1022.6 hPa Calm     95 % 0 mm 0 W/m2
02:51 -2.6 °C -3.3 °C 1022.6 hPa Calm     95 % 0 mm 0 W/m2
02:55 -2.6 °C -3.3 °C 1022.6 hPa Calm     95 % 0 mm 0 W/m2
02:56 -2.5 °C -3.2 °C 1022.6 hPa Calm     95 % 0 mm 0 W/m2
03:01 -2.4 °C -3.1 °C 1022.6 hPa Calm     95 % 0 mm 0 W/m2
03:04 -2.4 °C -3.1 °C 1022.6 hPa Calm     95 % 0 mm 0 W/m2
03:08 -2.4 °C -3.1 °C 1022.6 hPa Calm     95 % 0 mm 0 W/m2
03:13 -2.3 °C -3 °C 1022.2 hPa Calm     95 % 0 mm 0 W/m2
03:18 -2.1 °C -2.7 °C 1022.2 hPa Calm     96 % 0 mm 0 W/m2
03:23 -2 °C -2.7 °C 1022.2 hPa Calm   1.6 km/h 95 % 0 mm 0 W/m2
03:29 -1.9 °C -2.4 °C 1022.2 hPa Calm     96 % 0 mm 0 W/m2
03:33 -1.9 °C -2.6 °C 1022.2 hPa Calm   1.6 km/h 95 % 0 mm 0 W/m2
03:38 -1.8 °C -2.5 °C 1022.2 hPa Calm     95 % 0 mm 0 W/m2
03:39 -1.8 °C -2.5 °C 1022.2 hPa Calm     95 % 0 mm 0 W/m2
03:44 -1.8 °C -2.5 °C 1022.2 hPa Calm     95 % 0 mm 0 W/m2
03:48 -1.9 °C -2.6 °C 1022.2 hPa Calm     95 % 0 mm 0 W/m2
03:53 -1.9 °C -2.6 °C 1022.2 hPa Calm     95 % 0 mm 0 W/m2
03:55 -1.9 °C -2.6 °C 1022.2 hPa Calm     95 % 0 mm 0 W/m2
04:01 -1.8 °C -2.5 °C 1021.9 hPa Calm     95 % 0 mm 0 W/m2
04:02 -1.8 °C -2.5 °C 1021.9 hPa Calm     95 % 0 mm 0 W/m2
04:07 -1.8 °C -2.5 °C 1021.9 hPa Calm     95 % 0 mm 0 W/m2
04:12 -1.7 °C -2.4 °C 1021.9 hPa Calm     95 % 0 mm 0 W/m2
04:17 -1.6 °C -2.3 °C 1021.9 hPa Calm     95 % 0 mm 0 W/m2
04:19 -1.6 °C -2.2 °C 1021.6 hPa Calm     96 % 0 mm 0 W/m2
04:22 -1.5 °C -2.1 °C 1021.6 hPa Calm     96 % 0 mm 0 W/m2
04:24 -1.4 °C -1.9 °C 1021.6 hPa Calm     96 % 0 mm 0 W/m2
04:29 -1.4 °C -1.9 °C 1021.9 hPa Calm     96 % 0 mm 0 W/m2
04:30 -1.4 °C -1.9 °C 1021.9 hPa Calm     96 % 0 mm 0 W/m2
04:35 -1.3 °C -2 °C 1021.9 hPa Calm     95 % 0 mm 0 W/m2
04:36 -1.3 °C -2 °C 1021.9 hPa Calm     95 % 0 mm 0 W/m2
04:41 -1.3 °C -2 °C 1021.9 hPa Calm     95 % 0 mm 0 W/m2
04:44 -1.2 °C -1.8 °C 1021.9 hPa Calm     96 % 0 mm 0 W/m2
04:48 -1.1 °C -1.7 °C 1021.9 hPa Calm     96 % 0 mm 0 W/m2
04:50 -1.1 °C -1.7 °C 1021.9 hPa Calm     96 % 0 mm 0 W/m2
04:53 -1 °C -1.6 °C 1021.9 hPa Calm     96 % 0 mm 0 W/m2
04:56 -0.9 °C -1.4 °C 1021.9 hPa Calm     96 % 0 mm 0 W/m2
05:01 -0.8 °C -1.3 °C 1021.6 hPa Calm     96 % 0 mm 0 W/m2
05:04 -0.8 °C -1.3 °C 1021.6 hPa Calm     96 % 0 mm 0 W/m2
05:07 -0.7 °C -1.3 °C 1021.6 hPa Calm     96 % 0 mm 0 W/m2
05:09 -0.7 °C -1.3 °C 1021.6 hPa Calm     96 % 0 mm 0 W/m2
05:14 -0.6 °C -1.2 °C 1021.6 hPa Calm     96 % 0 mm 0 W/m2
05:16 -0.6 °C -1.2 °C 1021.6 hPa Calm     96 % 0 mm 0 W/m2
05:19 -0.5 °C -1.1 °C 1021.6 hPa Calm     96 % 0 mm 0 W/m2
05:24 -0.6 °C -1.2 °C 1021.6 hPa Calm     96 % 0 mm 0 W/m2
05:29 -0.6 °C -1.2 °C 1021.6 hPa Calm     96 % 0 mm 0 W/m2
05:30 -0.6 °C -1.2 °C 1021.6 hPa Calm     96 % 0 mm 0 W/m2
05:35 -0.4 °C -0.9 °C 1021.6 hPa Calm     96 % 0 mm 0 W/m2
05:36 -0.4 °C -0.9 °C 1021.6 hPa Calm     96 % 0 mm 0 W/m2
05:40 -0.3 °C -0.8 °C 1021.6 hPa Calm     96 % 0 mm 0 W/m2
05:41 -0.3 °C -0.8 °C 1021.6 hPa Calm     96 % 0 mm 0 W/m2
05:46 -0.4 °C -0.9 °C 1021.6 hPa Calm     96 % 0 mm 0 W/m2
05:47 -0.4 °C -0.9 °C 1021.2 hPa Calm     96 % 0 mm 0 W/m2
05:50 -0.4 °C -1.1 °C 1021.2 hPa Calm     95 % 0 mm 0 W/m2
05:55 -0.4 °C -0.9 °C 1021.2 hPa Calm     96 % 0 mm 0 W/m2
05:57 -0.3 °C -0.8 °C 1021.2 hPa Calm     96 % 0 mm 0 W/m2
06:02 -0.2 °C -0.8 °C 1021.2 hPa Calm     96 % 0 mm 0 W/m2
06:03 -0.2 °C -0.8 °C 1021.2 hPa Calm     96 % 0 mm 0 W/m2
06:06 -0.2 °C -0.8 °C 1021.2 hPa Calm     96 % 0 mm 0 W/m2
06:10 -0.2 °C -0.8 °C 1021.2 hPa Calm     96 % 0 mm 0 W/m2
06:12 -0.2 °C -0.8 °C 1021.2 hPa Calm     96 % 0 mm 0 W/m2
06:17 -0.2 °C -0.8 °C 1021.2 hPa Calm     96 % 0 mm 0 W/m2
06:18 -0.2 °C -0.8 °C 1021.2 hPa Calm     96 % 0 mm 0 W/m2
06:23 -0.1 °C -0.7 °C 1020.9 hPa Calm     96 % 0 mm 0 W/m2
06:24 -0.1 °C -0.7 °C 1020.9 hPa Calm     96 % 0 mm 0 W/m2
06:26 0 °C -0.6 °C 1020.9 hPa Calm     96 % 0 mm 0 W/m2
06:31 0.3 °C -0.3 °C 1020.9 hPa Calm     96 % 0 mm 0 W/m2
06:36 0.4 °C -0.2 °C 1020.9 hPa Calm     96 % 0 mm 0 W/m2
06:37 0.4 °C -0.2 °C 1020.9 hPa Calm     96 % 0 mm 0 W/m2
06:40 0.5 °C -0.1 °C 1020.9 hPa Calm     96 % 0 mm 0 W/m2
06:42 0.5 °C -0.1 °C 1020.9 hPa Calm     96 % 0 mm 0 W/m2
06:46 0.6 °C 0.1 °C 1020.9 hPa Calm     96 % 0 mm 0 W/m2
06:51 0.8 °C 0.2 °C 1020.9 hPa SE 1.6 km/h 9.7 km/h 96 % 0 mm 0 W/m2
06:56 1 °C 0.4 °C 1020.9 hPa Calm   6.4 km/h 96 % 0 mm 0 W/m2
07:01 1.2 °C 0.6 °C 1020.9 hPa Calm     96 % 0 mm 0 W/m2
07:06 1.3 °C 0.7 °C 1020.9 hPa Calm   3.2 km/h 96 % 0 mm 0 W/m2
07:07 1.3 °C 0.7 °C 1020.9 hPa Calm     96 % 0 mm 0 W/m2
07:12 1.3 °C 0.7 °C 1020.9 hPa Calm     96 % 0 mm 0 W/m2
07:13 1.3 °C 0.7 °C 1020.9 hPa Calm     96 % 0 mm 0 W/m2
07:18 1.4 °C 0.8 °C 1020.5 hPa Calm   3.2 km/h 96 % 0 mm 0 W/m2
07:21 1.4 °C 0.8 °C 1020.5 hPa SSE 1.6 km/h 3.2 km/h 96 % 0 mm 0 W/m2
07:23 1.5 °C 0.9 °C 1020.5 hPa Calm   3.2 km/h 96 % 0 mm 0 W/m2
07:28 1.6 °C 1.1 °C 1020.5 hPa SSE 1.6 km/h 4.8 km/h 96 % 0 mm 0 W/m2
07:30 1.6 °C 1.1 °C 1020.5 hPa Calm   3.2 km/h 96 % 0 mm 0 W/m2
07:32 1.6 °C 1.1 °C 1020.5 hPa Calm   1.6 km/h 96 % 0 mm 0 W/m2
07:37 1.6 °C 1.1 °C 1020.2 hPa Calm   1.6 km/h 96 % 0 mm 0 W/m2
07:38 1.6 °C 1.1 °C 1020.2 hPa Calm   1.6 km/h 96 % 0 mm 0 W/m2
07:43 1.6 °C 1.1 °C 1020.2 hPa Calm     96 % 0 mm 0 W/m2
07:44 1.6 °C 1.1 °C 1020.2 hPa Calm     96 % 0 mm 0 W/m2
07:45 1.6 °C 1.1 °C 1020.2 hPa Calm     96 % 0 mm 0 W/m2
07:50 1.5 °C 0.8 °C 1020.2 hPa Calm     95 % 0 mm 0 W/m2
07:55 1.4 °C 0.7 °C 1020.2 hPa Calm     95 % 0 mm 0 W/m2
07:57 1.4 °C 0.7 °C 1020.2 hPa Calm     95 % 0 mm 0 W/m2
08:03 1.3 °C 0.6 °C 1020.2 hPa Calm     95 % 0 mm 0 W/m2
08:08 1.2 °C 0.5 °C 1019.9 hPa Calm     95 % 0 mm 0 W/m2
08:10 1.2 °C 0.6 °C 1019.9 hPa Calm     96 % 0 mm 0 W/m2
08:11 1.2 °C 0.6 °C 1019.9 hPa Calm     96 % 0 mm 0 W/m2
08:16 1.3 °C 0.7 °C 1019.9 hPa SSE 1.6 km/h 3.2 km/h 96 % 0 mm 0 W/m2
08:19 1.3 °C 0.7 °C 1019.9 hPa SSE 1.6 km/h 3.2 km/h 96 % 0 mm 0 W/m2
08:24 1.4 °C 0.8 °C 1019.9 hPa Calm     96 % 0 mm 0 W/m2
08:26 1.4 °C 0.8 °C 1019.9 hPa Calm   1.6 km/h 96 % 0 mm 5 W/m2
08:30 1.6 °C 1.1 °C 1019.5 hPa SE 1.6 km/h 4.8 km/h 96 % 0 mm 5 W/m2
08:32 1.6 °C 1.1 °C 1019.5 hPa ESE 3.2 km/h 8 km/h 96 % 0 mm 5 W/m2
08:36 1.7 °C 1.1 °C 1019.5 hPa ESE 1.6 km/h 4.8 km/h 96 % 0 mm 7 W/m2
08:38 1.7 °C 1.1 °C 1019.5 hPa ESE 1.6 km/h 4.8 km/h 96 % 0 mm 7 W/m2
08:42 1.7 °C 1.1 °C 1019.9 hPa Calm   3.2 km/h 96 % 0 mm 9 W/m2
08:44 1.7 °C 1.1 °C 1019.5 hPa Calm     96 % 0 mm 9 W/m2
08:49 1.7 °C 1.1 °C 1019.5 hPa Calm   3.2 km/h 96 % 0 mm 11 W/m2
08:54 1.7 °C 1.1 °C 1019.5 hPa Calm     96 % 0 mm 12 W/m2
08:59 1.7 °C 1.1 °C 1019.5 hPa Calm     96 % 0 mm 18 W/m2
09:02 1.7 °C 1.1 °C 1019.5 hPa Calm     96 % 0 mm 21 W/m2
09:07 1.7 °C 1.1 °C 1019.5 hPa Calm     96 % 0 mm 25 W/m2
09:11 1.7 °C 1.1 °C 1019.5 hPa Calm     96 % 0 mm 25 W/m2
09:16 1.8 °C 1.2 °C 1019.5 hPa Calm     96 % 0 mm 19 W/m2
09:21 2 °C 1.4 °C 1019.5 hPa Calm     96 % 0 mm 16 W/m2
09:23 2.1 °C 1.6 °C 1019.5 hPa Calm     96 % 0 mm 14 W/m2
09:28 2.2 °C 1.6 °C 1019.5 hPa Calm     96 % 0 mm 11 W/m2
09:29 2.2 °C 1.6 °C 1019.5 hPa Calm     96 % 0 mm 11 W/m2
09:32 2.3 °C 1.7 °C 1019.5 hPa Calm     96 % 0 mm 11 W/m2
09:35 2.3 °C 1.7 °C 1019.5 hPa Calm     96 % 0 mm 11 W/m2
09:40 2.4 °C 1.8 °C 1019.2 hPa South 1.6 km/h 8 km/h 96 % 0.25 mm 11 W/m2
09:41 2.4 °C 1.8 °C 1019.2 hPa South 3.2 km/h 9.7 km/h 96 % 0.25 mm 11 W/m2
09:43 2.5 °C 1.9 °C 1019.2 hPa South 4.8 km/h 9.7 km/h 96 % 0.25 mm 11 W/m2
09:48 2.7 °C 2.1 °C 1019.2 hPa South 4.8 km/h 9.7 km/h 96 % 0.25 mm 11 W/m2
09:49 2.7 °C 2.1 °C 1019.2 hPa South 4.8 km/h 9.7 km/h 96 % 0.25 mm 11 W/m2
09:54 3 °C 2.4 °C 1019.2 hPa SSW 3.2 km/h 11.3 km/h 96 % 0.25 mm 14 W/m2
09:59 3.2 °C 2.6 °C 1019.2 hPa SSW 4.8 km/h 12.9 km/h 96 % 0.51 mm 16 W/m2
10:00 3.2 °C 2.6 °C 1019.2 hPa SW 3.2 km/h 8 km/h 96 % 0.51 mm 14 W/m2
10:05 3.4 °C 2.8 °C 1019.5 hPa SW 3.2 km/h 8 km/h 96 % 0.51 mm 18 W/m2
10:06 3.4 °C 2.8 °C 1019.5 hPa SW 1.6 km/h 9.7 km/h 96 % 0.51 mm 18 W/m2
10:11 3.5 °C 2.9 °C 1019.5 hPa SSW 4.8 km/h 12.9 km/h 96 % 0.51 mm 21 W/m2
10:16 3.6 °C 3 °C 1019.5 hPa SSW 3.2 km/h 8 km/h 96 % 0.51 mm 25 W/m2
10:21 3.6 °C 3 °C 1019.5 hPa SSW 3.2 km/h 8 km/h 96 % 0.76 mm 19 W/m2
10:26 3.6 °C 3 °C 1019.5 hPa SSW 1.6 km/h 8 km/h 96 % 0.76 mm 21 W/m2
10:29 3.6 °C 3 °C 1019.2 hPa SSW 1.6 km/h 6.4 km/h 96 % 1.02 mm 23 W/m2
10:34 3.7 °C 3.1 °C 1019.2 hPa SSW 3.2 km/h 8 km/h 96 % 1.02 mm 23 W/m2
10:36 3.8 °C 3.2 °C 1019.2 hPa SSW 1.6 km/h 6.4 km/h 96 % 0.76 mm 19 W/m2
10:41 4 °C 3.4 °C 1019.2 hPa SSW 3.2 km/h 8 km/h 96 % 0.76 mm 16 W/m2
10:43 4 °C 3.4 °C 1019.2 hPa South 1.6 km/h 6.4 km/h 96 % 0.76 mm 16 W/m2
10:48 4.1 °C 3.5 °C 1018.8 hPa South 3.2 km/h 8 km/h 96 % 0.76 mm 19 W/m2
10:50 4.1 °C 3.5 °C 1018.8 hPa South 3.2 km/h 6.4 km/h 96 % 0.76 mm 21 W/m2
10:52 4.1 °C 3.5 °C 1018.8 hPa SSE 3.2 km/h 8 km/h 96 % 0.76 mm 23 W/m2
10:57 4.2 °C 3.6 °C 1018.8 hPa SSE 1.6 km/h 6.4 km/h 96 % 0.51 mm 25 W/m2
10:59 4.2 °C 3.6 °C 1018.8 hPa SSE 1.6 km/h 6.4 km/h 96 % 0.51 mm 25 W/m2
11:04 4.2 °C 3.6 °C 1018.5 hPa SSE 4.8 km/h 9.7 km/h 96 % 0.76 mm 26 W/m2
11:05 4.2 °C 3.6 °C 1018.5 hPa SSE 4.8 km/h 9.7 km/h 96 % 0.51 mm 25 W/m2
11:06 4.2 °C 3.6 °C 1018.5 hPa South 3.2 km/h 9.7 km/h 96 % 0.51 mm 25 W/m2
11:11 4.2 °C 3.6 °C 1018.2 hPa SSE 4.8 km/h 8 km/h 96 % 0.51 mm 25 W/m2
11:16 4.3 °C 3.7 °C 1018.2 hPa South 3.2 km/h 8 km/h 96 % 0.51 mm 26 W/m2
11:17 4.3 °C 3.7 °C 1018.2 hPa South 4.8 km/h 8 km/h 96 % 0.51 mm 26 W/m2
11:22 4.5 °C 3.9 °C 1018.2 hPa South 8 km/h 19.3 km/h 96 % 0.51 mm 37 W/m2
11:24 4.6 °C 4 °C 1018.2 hPa SSW 6.4 km/h 12.9 km/h 96 % 0.51 mm 37 W/m2
11:29 4.8 °C 4.2 °C 1018.2 hPa SSW 9.7 km/h 17.7 km/h 96 % 0.25 mm 39 W/m2
11:30 4.9 °C 4.3 °C 1018.2 hPa SSW 8 km/h 12.9 km/h 96 % 0.25 mm 39 W/m2
11:35 5 °C 4.4 °C 1017.8 hPa SSW 9.7 km/h 14.5 km/h 96 % 0.25 mm 53 W/m2
11:39 5.1 °C 4.5 °C 1017.8 hPa SSW 9.7 km/h 14.5 km/h 96 % 0.25 mm 53 W/m2
11:41 5.1 °C 4.5 °C 1017.5 hPa SSW 11.3 km/h 19.3 km/h 96 % 0.25 mm 58 W/m2
11:45 5.1 °C 4.5 °C 1017.2 hPa SSW 8 km/h 12.9 km/h 96 % 0.25 mm 141 W/m2
11:50 5.4 °C 4.8 °C 1017.2 hPa SW 12.9 km/h 22.5 km/h 96 % 0.25 mm 272 W/m2
11:53 5.8 °C 5.2 °C 1017.2 hPa SSW 12.9 km/h 17.7 km/h 96 % 0.25 mm 322 W/m2
11:56 5.9 °C 5.3 °C 1016.8 hPa SSW 11.3 km/h 19.3 km/h 96 % 0.25 mm 325 W/m2
11:59 6.2 °C 5.6 °C 1016.8 hPa SSW 11.3 km/h 19.3 km/h 96 % 0.25 mm 332 W/m2
12:04 6.3 °C 5.7 °C 1016.8 hPa South 16.1 km/h 29 km/h 96 % 0 mm 322 W/m2
12:05 6.3 °C 5.7 °C 1016.8 hPa South 14.5 km/h 29 km/h 96 % 0 mm 186 W/m2
12:10 6.4 °C 5.7 °C 1016.8 hPa SSW 12.9 km/h 22.5 km/h 95 % 0 mm 262 W/m2
12:11 6.4 °C 5.7 °C 1016.8 hPa SSW 12.9 km/h 20.9 km/h 95 % 0 mm 211 W/m2
12:16 6.5 °C 5.8 °C 1016.5 hPa SSW 12.9 km/h 22.5 km/h 95 % 0 mm 135 W/m2
12:21 6.5 °C 5.6 °C 1016.5 hPa SW 12.9 km/h 22.5 km/h 94 % 0 mm 167 W/m2
12:22 6.5 °C 5.6 °C 1016.5 hPa SW 12.9 km/h 22.5 km/h 94 % 0 mm 165 W/m2
12:27 6.5 °C 5.6 °C 1016.1 hPa SW 14.5 km/h 25.7 km/h 94 % 0 mm 97 W/m2
12:28 6.5 °C 5.6 °C 1016.1 hPa SW 16.1 km/h 22.5 km/h 94 % 0 mm 97 W/m2
12:33 6.4 °C 5.3 °C 1016.1 hPa SW 14.5 km/h 22.5 km/h 93 % 0 mm 100 W/m2
12:38 6.4 °C 5.3 °C 1016.1 hPa SW 11.3 km/h 19.3 km/h 93 % 0 mm 102 W/m2
12:40 6.4 °C 5.3 °C 1016.1 hPa SW 11.3 km/h 19.3 km/h 93 % 0 mm 102 W/m2
12:45 6.4 °C 5.3 °C 1015.8 hPa SW 8 km/h 17.7 km/h 93 % 0 mm 105 W/m2
12:46 6.4 °C 5.3 °C 1015.8 hPa SSW 9.7 km/h 17.7 km/h 93 % 0 mm 105 W/m2
12:51 6.5 °C 5.4 °C 1015.8 hPa SSW 4.8 km/h 9.7 km/h 93 % 0 mm 86 W/m2
12:52 6.5 °C 5.4 °C 1015.8 hPa SSW 4.8 km/h 9.7 km/h 93 % 0 mm 84 W/m2
12:57 6.5 °C 5.4 °C 1015.8 hPa SSW 4.8 km/h 9.7 km/h 93 % 0 mm 86 W/m2
12:58 6.5 °C 5.4 °C 1015.8 hPa SSW 1.6 km/h 6.4 km/h 93 % 0 mm 83 W/m2
13:03 6.6 °C 5.6 °C 1015.5 hPa South 8 km/h 11.3 km/h 93 % 0 mm 93 W/m2
13:05 6.6 °C 5.6 °C 1015.5 hPa SSW 6.4 km/h 11.3 km/h 93 % 0 mm 93 W/m2
13:10 6.6 °C 5.6 °C 1015.1 hPa South 4.8 km/h 11.3 km/h 93 % 0 mm 93 W/m2
13:12 6.6 °C 5.6 °C 1015.5 hPa South 4.8 km/h 11.3 km/h 93 % 0 mm 90 W/m2
13:13 6.7 °C 5.7 °C 1015.1 hPa South 4.8 km/h 11.3 km/h 93 % 0 mm 88 W/m2
13:18 6.7 °C 5.7 °C 1015.1 hPa South 1.6 km/h 9.7 km/h 93 % 0 mm 83 W/m2
13:24 6.8 °C 5.9 °C 1015.1 hPa SSW 3.2 km/h 8 km/h 94 % 0 mm 77 W/m2
13:28 6.9 °C 6 °C 1015.1 hPa SSW 6.4 km/h 11.3 km/h 94 % 0 mm 72 W/m2
13:30 6.9 °C 6 °C 1015.1 hPa SW 4.8 km/h 11.3 km/h 94 % 0 mm 70 W/m2
13:35 7.1 °C 6.2 °C 1015.1 hPa WSW 8 km/h 11.3 km/h 94 % 0 mm 51 W/m2
13:37 7.2 °C 6.3 °C 1015.1 hPa WSW 3.2 km/h 8 km/h 94 % 0 mm 47 W/m2
13:41 7.3 °C 6.4 °C 1014.8 hPa WSW 3.2 km/h 8 km/h 94 % 0 mm 47 W/m2
13:45 7.6 °C 6.7 °C 1014.8 hPa WSW 8 km/h 14.5 km/h 94 % 0 mm 54 W/m2
13:50 7.8 °C 6.9 °C 1014.4 hPa WSW 6.4 km/h 9.7 km/h 94 % 0 mm 51 W/m2
13:51 7.8 °C 6.9 °C 1014.4 hPa WSW 9.7 km/h 19.3 km/h 94 % 0 mm 53 W/m2
13:52 7.8 °C 6.9 °C 1014.4 hPa WSW 11.3 km/h 19.3 km/h 94 % 0 mm 51 W/m2
13:57 8 °C 6.9 °C 1014.4 hPa WSW 11.3 km/h 17.7 km/h 93 % 0 mm 65 W/m2
14:02 8.2 °C 7.1 °C 1014.4 hPa WSW 11.3 km/h 20.9 km/h 93 % 0 mm 67 W/m2
14:06 8.3 °C 7.2 °C 1014.4 hPa WSW 17.7 km/h 30.6 km/h 93 % 0 mm 63 W/m2
14:08 8.4 °C 7.3 °C 1014.4 hPa WSW 12.9 km/h 22.5 km/h 93 % 0 mm 60 W/m2
14:13 8.7 °C 7.5 °C 1014.1 hPa WSW 19.3 km/h 32.2 km/h 92 % 0 mm 54 W/m2
14:14 8.7 °C 7.5 °C 1014.1 hPa WSW 17.7 km/h 32.2 km/h 92 % 0 mm 54 W/m2
14:17 8.8 °C 7.6 °C 1014.1 hPa WSW 11.3 km/h 25.7 km/h 92 % 0 mm 49 W/m2
14:19 8.8 °C 7.6 °C 1014.1 hPa WSW 14.5 km/h 25.7 km/h 92 % 0 mm 53 W/m2
14:24 8.8 °C 7.4 °C 1014.4 hPa West 14.5 km/h 19.3 km/h 91 % 0 mm 39 W/m2
14:25 8.8 °C 7.4 °C 1014.1 hPa West 12.9 km/h 24.1 km/h 91 % 0 mm 35 W/m2
14:31 8.9 °C 7.5 °C 1014.1 hPa West 14.5 km/h 22.5 km/h 91 % 0 mm 28 W/m2
14:36 8.9 °C 7.5 °C 1014.1 hPa West 14.5 km/h 24.1 km/h 91 % 0 mm 33 W/m2
14:37 8.9 °C 7.5 °C 1014.1 hPa West 14.5 km/h 24.1 km/h 91 % 0 mm 33 W/m2
14:42 8.9 °C 7.5 °C 1014.4 hPa West 14.5 km/h 22.5 km/h 91 % 0 mm 16 W/m2
14:43 8.9 °C 7.5 °C 1014.4 hPa West 14.5 km/h 22.5 km/h 91 % 0 mm 16 W/m2
14:48 8.9 °C 7.5 °C 1014.4 hPa WSW 14.5 km/h 24.1 km/h 91 % 0 mm 16 W/m2
14:50 8.9 °C 7.5 °C 1014.4 hPa WSW 8 km/h 17.7 km/h 91 % 0 mm 14 W/m2
14:53 8.8 °C 7.4 °C 1014.4 hPa WSW 9.7 km/h 14.5 km/h 91 % 0 mm 14 W/m2
14:58 8.8 °C 7.4 °C 1014.4 hPa West 12.9 km/h 22.5 km/h 91 % 0 mm 12 W/m2
14:59 8.8 °C 7.4 °C 1014.4 hPa West 12.9 km/h 22.5 km/h 91 % 0 mm 12 W/m2
15:04 8.8 °C 7.4 °C 1014.4 hPa West 12.9 km/h 20.9 km/h 91 % 0 mm 7 W/m2
15:06 8.8 °C 7.4 °C 1014.4 hPa West 16.1 km/h 29 km/h 91 % 0 mm 7 W/m2
15:07 8.8 °C 7.4 °C 1014.4 hPa West 14.5 km/h 24.1 km/h 91 % 0 mm 7 W/m2
15:12 8.9 °C 7.5 °C 1014.4 hPa West 14.5 km/h 29 km/h 91 % 0 mm 11 W/m2
15:13 8.9 °C 7.5 °C 1014.4 hPa West 17.7 km/h 29 km/h 91 % 0 mm 9 W/m2
15:18 8.9 °C 7.5 °C 1014.4 hPa WSW 16.1 km/h 24.1 km/h 91 % 0 mm 7 W/m2
15:20 8.9 °C 7.5 °C 1014.4 hPa WSW 11.3 km/h 20.9 km/h 91 % 0 mm 7 W/m2
15:23 8.9 °C 7.5 °C 1014.4 hPa WSW 16.1 km/h 22.5 km/h 91 % 0 mm 9 W/m2
15:28 8.9 °C 7.5 °C 1014.4 hPa West 11.3 km/h 19.3 km/h 91 % 0 mm 5 W/m2
15:29 8.9 °C 7.5 °C 1014.4 hPa West 11.3 km/h 19.3 km/h 91 % 0 mm 5 W/m2
15:33 8.8 °C 7.4 °C 1014.8 hPa West 11.3 km/h 17.7 km/h 91 % 0 mm 0 W/m2
15:37 8.8 °C 7.4 °C 1014.8 hPa West 14.5 km/h 17.7 km/h 91 % 0 mm 0 W/m2
15:42 8.8 °C 7.4 °C 1014.8 hPa West 9.7 km/h 16.1 km/h 91 % 0 mm 0 W/m2
15:43 8.8 °C 7.4 °C 1014.8 hPa West 9.7 km/h 14.5 km/h 91 % 0 mm 0 W/m2
15:48 8.8 °C 7.6 °C 1014.8 hPa WSW 12.9 km/h 20.9 km/h 92 % 0 mm 0 W/m2
15:53 8.8 °C 7.6 °C 1014.8 hPa WSW 11.3 km/h 19.3 km/h 92 % 0 mm 0 W/m2
15:54 8.8 °C 7.6 °C 1014.8 hPa WSW 11.3 km/h 17.7 km/h 92 % 0 mm 0 W/m2
15:59 8.8 °C 7.6 °C 1014.8 hPa West 9.7 km/h 11.3 km/h 92 % 0 mm 0 W/m2
16:00 8.8 °C 7.6 °C 1014.8 hPa West 6.4 km/h 11.3 km/h 92 % 0 mm 0 W/m2
16:05 8.8 °C 7.6 °C 1014.8 hPa West 12.9 km/h 22.5 km/h 92 % 0 mm 0 W/m2
16:06 8.8 °C 7.6 °C 1014.8 hPa West 12.9 km/h 20.9 km/h 92 % 0 mm 0 W/m2
16:07 8.8 °C 7.6 °C 1014.8 hPa WNW 12.9 km/h 20.9 km/h 92 % 0 mm 0 W/m2
16:12 8.8 °C 7.6 °C 1014.8 hPa West 11.3 km/h 17.7 km/h 92 % 0 mm 0 W/m2
16:17 8.7 °C 7.5 °C 1015.1 hPa West 11.3 km/h 17.7 km/h 92 % 0 mm 0 W/m2
16:18 8.7 °C 7.5 °C 1015.1 hPa West 11.3 km/h 17.7 km/h 92 % 0 mm 0 W/m2
16:20 8.7 °C 7.5 °C 1014.8 hPa West 11.3 km/h 17.7 km/h 92 % 0 mm 0 W/m2
16:24 8.7 °C 7.5 °C 1015.1 hPa West 12.9 km/h 22.5 km/h 92 % 0 mm 0 W/m2
16:28 8.7 °C 7.5 °C 1015.1 hPa West 9.7 km/h 14.5 km/h 92 % 0 mm 0 W/m2
16:30 8.7 °C 7.5 °C 1015.1 hPa West 9.7 km/h 14.5 km/h 92 % 0 mm 0 W/m2
16:35 8.7 °C 7.6 °C 1014.8 hPa WSW 11.3 km/h 16.1 km/h 93 % 0 mm 0 W/m2
16:36 8.7 °C 7.6 °C 1014.8 hPa WSW 8 km/h 16.1 km/h 93 % 0 mm 0 W/m2
16:41 8.8 °C 7.7 °C 1014.8 hPa West 14.5 km/h 25.7 km/h 93 % 0 mm 0 W/m2
16:44 8.8 °C 7.7 °C 1015.1 hPa West 14.5 km/h 25.7 km/h 93 % 0 mm 0 W/m2
16:49 8.9 °C 7.8 °C 1015.1 hPa WNW 9.7 km/h 16.1 km/h 93 % 0 mm 0 W/m2
16:51 8.9 °C 7.8 °C 1015.1 hPa WNW 11.3 km/h 19.3 km/h 93 % 0 mm 0 W/m2
16:55 8.9 °C 7.8 °C 1015.1 hPa WNW 12.9 km/h 22.5 km/h 93 % 0 mm 0 W/m2
17:00 9 °C 7.9 °C 1015.1 hPa WNW 11.3 km/h 19.3 km/h 93 % 0 mm 0 W/m2
17:01 9 °C 7.9 °C 1015.1 hPa WNW 11.3 km/h 19.3 km/h 93 % 0 mm 0 W/m2
17:06 9.1 °C 8 °C 1015.1 hPa West 9.7 km/h 14.5 km/h 93 % 0 mm 0 W/m2
17:11 9.1 °C 8 °C 1015.1 hPa West 11.3 km/h 19.3 km/h 93 % 0 mm 0 W/m2
17:12 9.1 °C 8 °C 1015.1 hPa West 11.3 km/h 17.7 km/h 93 % 0 mm 0 W/m2
17:17 9.1 °C 7.9 °C 1015.1 hPa WNW 12.9 km/h 29 km/h 92 % 0 mm 0 W/m2
17:19 9.2 °C 7.9 °C 1015.1 hPa WNW 12.9 km/h 19.3 km/h 92 % 0 mm 0 W/m2
17:24 9.2 °C 7.9 °C 1015.1 hPa WNW 17.7 km/h 30.6 km/h 92 % 0 mm 0 W/m2
17:26 9.3 °C 8.1 °C 1015.1 hPa WNW 17.7 km/h 29 km/h 92 % 0 mm 0 W/m2
17:30 9.3 °C 8.1 °C 1015.1 hPa WNW 16.1 km/h 29 km/h 92 % 0 mm 0 W/m2
17:34 9.4 °C 8.2 °C 1015.1 hPa WNW 19.3 km/h 32.2 km/h 92 % 0 mm 0 W/m2
17:39 9.4 °C 8.2 °C 1015.1 hPa WNW 22.5 km/h 33.8 km/h 92 % 0 mm 0 W/m2
17:43 9.4 °C 8 °C 1015.1 hPa WNW 22.5 km/h 33.8 km/h 91 % 0 mm 0 W/m2
17:45 9.3 °C 7.9 °C 1015.1 hPa WNW 22.5 km/h 41.8 km/h 91 % 0 mm 0 W/m2
17:50 9.2 °C 7.7 °C 1015.5 hPa WNW 20.9 km/h 32.2 km/h 90 % 0 mm 0 W/m2
17:55 9.1 °C 7.4 °C 1015.5 hPa WNW 22.5 km/h 33.8 km/h 89 % 0 mm 0 W/m2
17:58 9.1 °C 7.4 °C 1015.8 hPa WNW 14.5 km/h 24.1 km/h 89 % 0 mm 0 W/m2
18:01 9 °C 7.1 °C 1015.8 hPa WNW 12.9 km/h 24.1 km/h 88 % 0 mm 0 W/m2
18:06 8.9 °C 7 °C 1016.1 hPa WNW 17.7 km/h 24.1 km/h 88 % 0 mm 0 W/m2
18:11 8.8 °C 6.8 °C 1016.1 hPa WNW 16.1 km/h 24.1 km/h 87 % 0 mm 0 W/m2
18:12 8.8 °C 6.8 °C 1016.1 hPa WNW 16.1 km/h 24.1 km/h 87 % 0 mm 0 W/m2
18:17 8.6 °C 6.6 °C 1016.5 hPa WNW 12.9 km/h 17.7 km/h 87 % 0 mm 0 W/m2
18:19 8.6 °C 6.4 °C 1016.5 hPa WNW 12.9 km/h 19.3 km/h 86 % 0 mm 0 W/m2
18:24 8.4 °C 6 °C 1016.5 hPa WNW 19.3 km/h 30.6 km/h 85 % 0 mm 0 W/m2
18:26 8.3 °C 5.9 °C 1016.5 hPa WNW 19.3 km/h 37 km/h 85 % 0 mm 0 W/m2
18:28 8.3 °C 5.9 °C 1016.5 hPa WNW 20.9 km/h 37 km/h 85 % 0 mm 0 W/m2
18:33 8.2 °C 5.7 °C 1016.8 hPa WNW 20.9 km/h 32.2 km/h 84 % 0 mm 0 W/m2
18:34 8.2 °C 5.7 °C 1016.8 hPa WNW 22.5 km/h 32.2 km/h 84 % 0 mm 0 W/m2
18:39 8.1 °C 5.7 °C 1016.8 hPa WNW 17.7 km/h 25.7 km/h 85 % 0 mm 0 W/m2
18:44 7.9 °C 5.6 °C 1016.5 hPa WNW 22.5 km/h 33.8 km/h 85 % 0 mm 0 W/m2
18:46 7.9 °C 5.6 °C 1016.5 hPa WNW 24.1 km/h 38.6 km/h 85 % 0 mm 0 W/m2
18:52 7.8 °C 5.6 °C 1016.5 hPa WNW 17.7 km/h 30.6 km/h 86 % 0 mm 0 W/m2
18:57 7.6 °C 5.4 °C 1016.5 hPa WNW 20.9 km/h 32.2 km/h 86 % 0 mm 0 W/m2
19:02 7.6 °C 5.4 °C 1016.8 hPa WNW 20.9 km/h 40.2 km/h 86 % 0 mm 0 W/m2
19:04 7.5 °C 5.3 °C 1016.8 hPa WNW 20.9 km/h 40.2 km/h 86 % 0 mm 0 W/m2
19:09 7.5 °C 5.3 °C 1017.2 hPa WNW 19.3 km/h 41.8 km/h 86 % 0 mm 0 W/m2
19:10 7.5 °C 5.3 °C 1017.2 hPa WNW 24.1 km/h 41.8 km/h 86 % 0 mm 0 W/m2
19:12 7.5 °C 5.3 °C 1017.2 hPa WNW 20.9 km/h 40.2 km/h 86 % 0 mm 0 W/m2
19:16 7.5 °C 5.3 °C 1017.2 hPa NW 17.7 km/h 30.6 km/h 86 % 0 mm 0 W/m2
19:17 7.5 °C 5.3 °C 1017.5 hPa WNW 19.3 km/h 30.6 km/h 86 % 0 mm 0 W/m2
19:19 7.4 °C 5.2 °C 1017.5 hPa NW 19.3 km/h 30.6 km/h 86 % 0 mm 0 W/m2
19:24 7.4 °C 5.2 °C 1017.5 hPa WNW 19.3 km/h 32.2 km/h 86 % 0 mm 0 W/m2
19:29 7.3 °C 5.1 °C 1017.8 hPa NW 16.1 km/h 25.7 km/h 86 % 0 mm 0 W/m2
19:30 7.3 °C 5.1 °C 1017.8 hPa NW 16.1 km/h 25.7 km/h 86 % 0 mm 0 W/m2
19:35 7.2 °C 5.2 °C 1017.8 hPa WNW 14.5 km/h 25.7 km/h 87 % 0 mm 0 W/m2
19:40 7.1 °C 5.1 °C 1018.2 hPa NW 12.9 km/h 22.5 km/h 87 % 0 mm 0 W/m2
19:42 7.1 °C 5.1 °C 1018.2 hPa NW 11.3 km/h 17.7 km/h 87 % 0 mm 0 W/m2
19:47 7 °C 5 °C 1018.2 hPa WNW 12.9 km/h 22.5 km/h 87 % 0 mm 0 W/m2
19:48 7 °C 5 °C 1018.2 hPa WNW 12.9 km/h 22.5 km/h 87 % 0 mm 0 W/m2
19:53 6.9 °C 4.7 °C 1018.5 hPa WNW 14.5 km/h 35.4 km/h 86 % 0 mm 0 W/m2
19:54 6.9 °C 4.7 °C 1018.5 hPa WNW 14.5 km/h 35.4 km/h 86 % 0 mm 0 W/m2
19:59 6.9 °C 4.7 °C 1018.8 hPa NW 11.3 km/h 20.9 km/h 86 % 0 mm 0 W/m2
20:02 6.9 °C 4.7 °C 1018.8 hPa NW 11.3 km/h 24.1 km/h 86 % 0 mm 0 W/m2
20:06 6.8 °C 4.6 °C 1019.2 hPa NW 11.3 km/h 17.7 km/h 86 % 0 mm 0 W/m2
20:07 6.8 °C 4.6 °C 1019.2 hPa NW 12.9 km/h 20.9 km/h 86 % 0 mm 0 W/m2
20:12 6.8 °C 4.6 °C 1019.2 hPa WNW 11.3 km/h 17.7 km/h 86 % 0 mm 0 W/m2
20:17 6.7 °C 4.5 °C 1019.2 hPa NW 9.7 km/h 14.5 km/h 86 % 0 mm 0 W/m2
20:22 6.6 °C 4.4 °C 1019.2 hPa NW 14.5 km/h 20.9 km/h 86 % 0 mm 0 W/m2
20:23 6.6 °C 4.4 °C 1019.2 hPa WNW 12.9 km/h 20.9 km/h 86 % 0 mm 0 W/m2
20:28 6.5 °C 4.2 °C 1019.5 hPa WNW 16.1 km/h 25.7 km/h 85 % 0 mm 0 W/m2
20:29 6.5 °C 4.2 °C 1019.5 hPa WNW 14.5 km/h 25.7 km/h 85 % 0 mm 0 W/m2
20:34 6.4 °C 4.1 °C 1019.5 hPa NW 11.3 km/h 22.5 km/h 85 % 0 mm 0 W/m2
20:37 6.3 °C 3.9 °C 1019.5 hPa NW 11.3 km/h 20.9 km/h 85 % 0 mm 0 W/m2
20:42 6.3 °C 3.8 °C 1019.9 hPa NW 11.3 km/h 17.7 km/h 84 % 0 mm 0 W/m2
20:44 6.3 °C 3.8 °C 1019.9 hPa NW 9.7 km/h 16.1 km/h 84 % 0 mm 0 W/m2
20:49 6.2 °C 3.5 °C 1019.9 hPa NW 9.7 km/h 14.5 km/h 83 % 0 mm 0 W/m2
20:51 6.2 °C 3.5 °C 1019.9 hPa NW 11.3 km/h 19.3 km/h 83 % 0 mm 0 W/m2
20:57 6.1 °C 3.4 °C 1019.5 hPa NW 14.5 km/h 20.9 km/h 83 % 0 mm 0 W/m2
21:02 6 °C 3.5 °C 1019.9 hPa NW 9.7 km/h 20.9 km/h 84 % 0 mm 0 W/m2
21:04 6 °C 3.5 °C 1019.9 hPa NW 12.9 km/h 20.9 km/h 84 % 0 mm 0 W/m2
21:09 5.9 °C 3.4 °C 1019.9 hPa NW 11.3 km/h 17.7 km/h 84 % 0 mm 0 W/m2
21:11 5.9 °C 3.4 °C 1020.2 hPa NW 9.7 km/h 17.7 km/h 84 % 0 mm 0 W/m2
21:16 5.8 °C 3.3 °C 1020.2 hPa NW 9.7 km/h 17.7 km/h 84 % 0 mm 0 W/m2
21:20 5.7 °C 3.4 °C 1020.2 hPa NW 11.3 km/h 16.1 km/h 85 % 0 mm 0 W/m2
21:22 5.7 °C 3.4 °C 1020.2 hPa WNW 11.3 km/h 16.1 km/h 85 % 0 mm 0 W/m2
21:27 5.6 °C 3.3 °C 1020.5 hPa WNW 11.3 km/h 16.1 km/h 85 % 0 mm 0 W/m2
21:28 5.6 °C 3.3 °C 1020.5 hPa WNW 9.7 km/h 16.1 km/h 85 % 0 mm 0 W/m2
21:33 5.4 °C 3.1 °C 1020.5 hPa WNW 6.4 km/h 12.9 km/h 85 % 0 mm 0 W/m2
21:38 5.3 °C 3 °C 1020.9 hPa WNW 9.7 km/h 16.1 km/h 85 % 0 mm 0 W/m2
21:41 5.2 °C 2.9 °C 1020.9 hPa WNW 11.3 km/h 14.5 km/h 85 % 0 mm 0 W/m2
21:46 5.1 °C 2.8 °C 1020.9 hPa WNW 11.3 km/h 17.7 km/h 85 % 0 mm 0 W/m2
21:51 5 °C 2.7 °C 1020.9 hPa WNW 12.9 km/h 20.9 km/h 85 % 0 mm 0 W/m2
21:53 4.9 °C 2.6 °C 1020.9 hPa WNW 12.9 km/h 22.5 km/h 85 % 0 mm 0 W/m2
21:58 4.9 °C 2.6 °C 1020.9 hPa NW 14.5 km/h 22.5 km/h 85 % 0 mm 0 W/m2
22:01 4.9 °C 2.6 °C 1020.9 hPa NW 12.9 km/h 20.9 km/h 85 % 0 mm 0 W/m2
22:05 4.9 °C 2.4 °C 1020.9 hPa NW 11.3 km/h 19.3 km/h 84 % 0 mm 0 W/m2
22:10 5 °C 2.5 °C 1020.9 hPa NW 12.9 km/h 19.3 km/h 84 % 0 mm 0 W/m2
22:12 5 °C 2.5 °C 1021.2 hPa WNW 12.9 km/h 19.3 km/h 84 % 0 mm 0 W/m2
22:17 4.9 °C 2.3 °C 1021.2 hPa WNW 8 km/h 12.9 km/h 83 % 0 mm 0 W/m2
22:18 4.9 °C 2.3 °C 1021.2 hPa WNW 9.7 km/h 16.1 km/h 83 % 0 mm 0 W/m2
22:23 4.9 °C 2.3 °C 1021.2 hPa WNW 11.3 km/h 19.3 km/h 83 % 0 mm 0 W/m2
22:25 4.8 °C 2.3 °C 1021.2 hPa WNW 11.3 km/h 17.7 km/h 84 % 0 mm 0 W/m2
22:26 4.8 °C 2.3 °C 1021.6 hPa WNW 11.3 km/h 16.1 km/h 84 % 0 mm 0 W/m2
22:31 4.8 °C 2.3 °C 1021.6 hPa WNW 9.7 km/h 14.5 km/h 84 % 0 mm 0 W/m2
22:34 4.8 °C 2.3 °C 1021.6 hPa WNW 8 km/h 16.1 km/h 84 % 0 mm 0 W/m2
22:35 4.8 °C 2.3 °C 1021.6 hPa WNW 8 km/h 11.3 km/h 84 % 0 mm 0 W/m2
22:40 4.7 °C 2.2 °C 1021.6 hPa WNW 11.3 km/h 16.1 km/h 84 % 0 mm 0 W/m2
22:42 4.6 °C 2.1 °C 1021.6 hPa NW 9.7 km/h 16.1 km/h 84 % 0 mm 0 W/m2
22:45 4.6 °C 2.3 °C 1021.6 hPa WNW 9.7 km/h 19.3 km/h 85 % 0 mm 0 W/m2
22:48 4.6 °C 2.3 °C 1021.6 hPa WNW 11.3 km/h 16.1 km/h 85 % 0 mm 0 W/m2
22:53 4.6 °C 2.3 °C 1021.6 hPa WNW 6.4 km/h 12.9 km/h 85 % 0 mm 0 W/m2
22:54 4.6 °C 2.3 °C 1021.6 hPa WNW 6.4 km/h 12.9 km/h 85 % 0 mm 0 W/m2
22:59 4.5 °C 2.2 °C 1021.6 hPa WNW 4.8 km/h 9.7 km/h 85 % 0 mm 0 W/m2
23:02 4.4 °C 2.1 °C 1021.6 hPa WNW 6.4 km/h 11.3 km/h 85 % 0 mm 0 W/m2
23:06 4.3 °C 2 °C 1021.6 hPa WNW 6.4 km/h 14.5 km/h 85 % 0 mm 0 W/m2
23:07 4.3 °C 2.2 °C 1021.6 hPa WNW 8 km/h 14.5 km/h 86 % 0 mm 0 W/m2
23:12 4.3 °C 2.2 °C 1021.9 hPa WNW 9.7 km/h 14.5 km/h 86 % 0 mm 0 W/m2
23:13 4.3 °C 2.2 °C 1021.9 hPa WNW 9.7 km/h 14.5 km/h 86 % 0 mm 0 W/m2
23:18 4.3 °C 2.2 °C 1021.9 hPa WNW 8 km/h 11.3 km/h 86 % 0 mm 0 W/m2
23:19 4.3 °C 2.2 °C 1021.9 hPa West 8 km/h 11.3 km/h 86 % 0 mm 0 W/m2
23:20 4.3 °C 2.2 °C 1021.9 hPa West 8 km/h 11.3 km/h 86 % 0 mm 0 W/m2
23:25 4.2 °C 2.1 °C 1021.9 hPa West 8 km/h 12.9 km/h 86 % 0 mm 0 W/m2
23:28 4.2 °C 2.1 °C 1021.9 hPa WNW 8 km/h 12.9 km/h 86 % 0 mm 0 W/m2
23:33 4.1 °C 2.1 °C 1021.9 hPa WNW 9.7 km/h 12.9 km/h 87 % 0 mm 0 W/m2
23:37 4 °C 2.1 °C 1021.9 hPa WNW 9.7 km/h 14.5 km/h 87 % 0 mm 0 W/m2
23:42 4 °C 2.1 °C 1021.9 hPa WNW 11.3 km/h 17.7 km/h 87 % 0 mm 0 W/m2
23:43 4 °C 2.1 °C 1021.9 hPa WNW 11.3 km/h 17.7 km/h 87 % 0 mm 0 W/m2
23:48 4.1 °C 2.1 °C 1022.2 hPa WNW 9.7 km/h 17.7 km/h 87 % 0 mm 0 W/m2
23:50 4.2 °C 2.2 °C 1022.2 hPa WNW 9.7 km/h 12.9 km/h 87 % 0 mm 0 W/m2
23:55 4.2 °C 2.2 °C 1022.2 hPa WNW 11.3 km/h 14.5 km/h 87 % 0 mm 0 W/m2
Delerius-Weather
Compliments of Weather Underground - 3 mb

Data updates at regular intervals.